Pagrindinis puslapis
METAR-TAF:

METAR-TAF

Oro uostai :

Kumamotas, Japonija

platuma: 32-50N, ilguma: 130-51E, Aukštis: 193 m

Dabartinis oras

Ataskaita buvo paskelbta 1 valandą ir 50 minutes, ne 12:00 UTC
Vėjas 3 kt iš Šiaurės/Šiaurės Rytų, svyruoja nuo Šiaurės/Šiaurės Vakarų ir Rytų/Šiaurės Rytų
Temperatūra 2°C
Drėgmė 93%
Slėgis 1025 hPa
Matomumas 10 km arba daugiau
nėra debesų žemiau 1500 m ir nėra kamuolinių lietaus debesų

METAR: RJFT 071200Z 03003KT 340V060 CAVOK 02/01 Q1025

Laikas: 22:50 (13:50 UTC)

Prognozė

Ataskaita buvo paskelbta 2 valandos ir 44 minutes, ne 11:06 UTC
Prognozė galioja nuo 07 metu 12 UTC su 08 metu 18 UTC
Vėjas 4 kt iš Šiaurės/Šiaurės Rytų
Matomumas 10 km arba daugiau
Mažai debesys ne aukštis 2000 ft
Tapsmas
nuo 08 metu 00 UTC su 08 metu 03 UTC
Vėjas 5 kt iš Šiaurės Vakarų
Tapsmas
nuo 08 metu 06 UTC su 08 metu 09 UTC
Vėjas 5 kt iš Rytų/Šiaurės Rytų

TAF: RJFT 071106Z 0712/0818 03004KT 9999 FEW020 BECMG 0800/0803 31005KT BECMG 0806/0809 06005KT

Orai ataskaitas ir orų prognozės (METAR, TAF).

turimą stotys yra geltonos ir raudonos taškus žemėlapyje.

Perkelti pele per norėdami pamatyti stoties vardą.

Tada spustelėkite, norėdami matyti oro stebėjimo ir prognozės.

Norėdami pakeisti žemėlapį: spustelėkite ant žalios mygtukų su juodo kryžiaus žemyn,; žalią mygtuką su brūkšneliu, jei norite nutolinti; arba žalių rodyklių gretimoms žemėlapius.


METAR-TAF: